Time;durP1;ratioP1;P1;durP2;ratioP2;P2;SDS_P1;SDS_P2;PMS_P1;PMS_P2;Temp;Humidity;BMP_temperature;BMP_pressure;BME280_temperature;BME280_humidity;BME280_pressure;Samples;Min_cycle;Max_cycle;Signal;HPM_P1;HPM_P2
2021/05/20 00:00:19;;;;;;;10.35;9.35;;;;;;;;;;5033318;28;20202;-60
2021/05/20 00:02:46;;;;;;;12.07;10.77;;;;;;;;;;5033570;28;20206;-61
2021/05/20 00:05:15;;;;;;;12.05;10.43;;;;;;;;;;5033301;28;20198;-61
2021/05/20 00:07:42;;;;;;;11.38;10.18;;;;;;;;;;5033526;28;20253;-61
2021/05/20 00:10:09;;;;;;;13.55;11.23;;;;;;;;;;5033299;28;20275;-60
2021/05/20 00:12:36;;;;;;;11.90;10.70;;;;;;;;;;5033405;28;20198;-60
2021/05/20 00:15:03;;;;;;;14.48;11.23;;;;;;;;;;5033009;28;20209;-60
2021/05/20 00:17:30;;;;;;;14.07;10.60;;;;;;;;;;5033309;28;20202;-61
2021/05/20 00:19:57;;;;;;;12.80;10.02;;;;;;;;;;5032866;28;20201;-60
2021/05/20 00:22:25;;;;;;;12.88;11.48;;;;;;;;;;5033325;28;20210;-60
2021/05/20 00:24:51;;;;;;;14.90;11.82;;;;;;;;;;5036725;28;20213;-60
2021/05/20 00:27:18;;;;;;;14.85;12.20;;;;;;;;;;5037266;28;20209;-61
2021/05/20 00:29:46;;;;;;;16.50;12.40;;;;;;;;;;5037054;28;20229;-60
2021/05/20 00:32:12;;;;;;;13.52;12.13;;;;;;;;;;5037136;28;20210;-61
2021/05/20 00:34:39;;;;;;;14.30;12.05;;;;;;;;;;5036791;28;20577;-61
2021/05/20 00:37:06;;;;;;;16.30;12.35;;;;;;;;;;5036765;28;20201;-60
2021/05/20 00:39:33;;;;;;;15.43;13.82;;;;;;;;;;5037078;28;20222;-61
2021/05/20 00:42:05;;;;;;;15.00;13.50;;;;;;;;;;5037048;28;20210;-61
2021/05/20 00:44:32;;;;;;;16.50;13.43;;;;;;;;;;5036943;28;20186;-60
2021/05/20 00:46:59;;;;;;;15.95;14.00;;;;;;;;;;5036653;28;20673;-61
2021/05/20 00:49:26;;;;;;;13.65;11.88;;;;;;;;;;5036700;28;20222;-61
2021/05/20 00:51:52;;;;;;;14.20;12.60;;;;;;;;;;5036559;28;20674;-61
2021/05/20 00:54:20;;;;;;;15.98;14.25;;;;;;;;;;5036571;28;20203;-61
2021/05/20 00:56:48;;;;;;;14.32;12.73;;;;;;;;;;5036481;28;20205;-60
2021/05/20 00:59:15;;;;;;;16.42;14.35;;;;;;;;;;5036401;28;20709;-60
2021/05/20 01:01:42;;;;;;;15.48;13.68;;;;;;;;;;5036311;28;20203;-61
2021/05/20 01:04:09;;;;;;;16.20;12.85;;;;;;;;;;5036324;28;20206;-60
2021/05/20 01:06:35;;;;;;;15.90;14.20;;;;;;;;;;5040337;28;20203;-60
2021/05/20 01:09:02;;;;;;;15.30;13.73;;;;;;;;;;5040973;28;20227;-60
2021/05/20 01:11:29;;;;;;;16.40;14.40;;;;;;;;;;5041208;28;20233;-61
2021/05/20 01:13:57;;;;;;;16.10;14.40;;;;;;;;;;5041518;28;20210;-59
2021/05/20 01:16:23;;;;;;;16.90;14.10;;;;;;;;;;5042006;28;20592;-60
2021/05/20 01:18:50;;;;;;;15.38;13.52;;;;;;;;;;5041811;28;20220;-60
2021/05/20 01:21:18;;;;;;;16.38;12.88;;;;;;;;;;5040859;28;20256;-60
2021/05/20 01:23:44;;;;;;;14.82;12.75;;;;;;;;;;5038558;28;20205;-60
2021/05/20 01:26:12;;;;;;;17.52;14.07;;;;;;;;;;5039344;28;20257;-60
2021/05/20 01:28:39;;;;;;;17.83;14.93;;;;;;;;;;5039044;28;20226;-60
2021/05/20 01:31:08;;;;;;;18.73;15.10;;;;;;;;;;5039042;28;20206;-60
2021/05/20 01:33:35;;;;;;;16.15;14.13;;;;;;;;;;5039091;28;20256;-61
2021/05/20 01:36:02;;;;;;;16.90;14.18;;;;;;;;;;5038418;28;20211;-60
2021/05/20 01:38:41;;;;;;;18.20;15.98;;;;;;;;;;5039242;28;20718;-61
2021/05/20 01:41:09;;;;;;;18.25;14.13;;;;;;;;;;5039434;28;20191;-61
2021/05/20 01:43:36;;;;;;;18.52;15.77;;;;;;;;;;5042530;28;20659;-61
2021/05/20 01:46:04;;;;;;;18.02;14.65;;;;;;;;;;5041548;28;20550;-61
2021/05/20 01:48:32;;;;;;;19.65;15.40;;;;;;;;;;5036481;28;20237;-61
2021/05/20 01:51:02;;;;;;;19.15;16.65;;;;;;;;;;5036063;28;20210;-61
2021/05/20 01:53:30;;;;;;;18.75;15.00;;;;;;;;;;5035961;28;20650;-61
2021/05/20 01:55:57;;;;;;;19.10;15.35;;;;;;;;;;5035741;28;20689;-62
2021/05/20 01:58:23;;;;;;;21.27;16.92;;;;;;;;;;5035402;28;20234;-61
2021/05/20 02:00:50;;;;;;;20.30;16.27;;;;;;;;;;5035690;28;20229;-61
2021/05/20 02:03:17;;;;;;;19.98;15.65;;;;;;;;;;5035838;28;20203;-61
2021/05/20 02:05:43;;;;;;;20.83;16.95;;;;;;;;;;5035209;28;20669;-62
2021/05/20 02:08:10;;;;;;;17.88;14.77;;;;;;;;;;5035250;28;20228;-61
2021/05/20 02:10:38;;;;;;;21.40;16.92;;;;;;;;;;5035410;28;20205;-61
2021/05/20 02:13:05;;;;;;;18.85;15.63;;;;;;;;;;5035295;28;20205;-61
2021/05/20 02:15:32;;;;;;;20.80;16.35;;;;;;;;;;5035197;28;20205;-61
2021/05/20 02:17:59;;;;;;;18.85;15.30;;;;;;;;;;5035132;28;20562;-62
2021/05/20 02:20:26;;;;;;;22.23;17.33;;;;;;;;;;5035241;28;20206;-59
2021/05/20 02:22:52;;;;;;;21.60;17.45;;;;;;;;;;5034795;28;20206;-61
2021/05/20 02:25:19;;;;;;;20.00;15.88;;;;;;;;;;5035155;28;20211;-61
2021/05/20 02:27:47;;;;;;;22.40;16.15;;;;;;;;;;5034944;28;20221;-61
2021/05/20 02:30:15;;;;;;;21.60;16.95;;;;;;;;;;5034887;28;20229;-60
2021/05/20 02:32:41;;;;;;;20.35;16.85;;;;;;;;;;5034635;28;20209;-60
2021/05/20 02:35:09;;;;;;;20.15;16.33;;;;;;;;;;5034873;28;20203;-60
2021/05/20 02:37:36;;;;;;;18.95;15.38;;;;;;;;;;5034835;28;20232;-61
2021/05/20 02:40:03;;;;;;;20.65;16.15;;;;;;;;;;5034735;28;20183;-60
2021/05/20 02:42:30;;;;;;;21.25;17.10;;;;;;;;;;5034957;28;20206;-60
2021/05/20 02:44:58;;;;;;;22.92;17.30;;;;;;;;;;5034893;28;20236;-61
2021/05/20 02:47:25;;;;;;;22.52;16.25;;;;;;;;;;5033699;28;20249;-61
2021/05/20 02:49:51;;;;;;;19.92;16.15;;;;;;;;;;5034736;28;20219;-59
2021/05/20 02:52:18;;;;;;;21.95;17.50;;;;;;;;;;5034610;28;20205;-61
2021/05/20 02:54:45;;;;;;;21.33;18.33;;;;;;;;;;5034502;28;20209;-61
2021/05/20 02:57:12;;;;;;;21.98;18.10;;;;;;;;;;5034241;28;20567;-61
2021/05/20 02:59:38;;;;;;;23.73;16.50;;;;;;;;;;5034387;28;20222;-61
2021/05/20 03:02:07;;;;;;;20.45;16.80;;;;;;;;;;5034404;28;20203;-61
2021/05/20 03:04:34;;;;;;;19.60;16.90;;;;;;;;;;5034288;28;20212;-60
2021/05/20 03:07:01;;;;;;;22.05;17.85;;;;;;;;;;5034030;28;20203;-60
2021/05/20 03:09:28;;;;;;;22.25;17.63;;;;;;;;;;5034109;28;20218;-61
2021/05/20 03:11:56;;;;;;;21.92;16.30;;;;;;;;;;5034203;28;20217;-60
2021/05/20 03:14:23;;;;;;;18.55;16.42;;;;;;;;;;5034159;28;20284;-61
2021/05/20 03:16:50;;;;;;;23.02;17.17;;;;;;;;;;5033811;28;20572;-61
2021/05/20 03:19:17;;;;;;;21.45;16.60;;;;;;;;;;5033651;28;20708;-60
2021/05/20 03:21:44;;;;;;;20.92;17.30;;;;;;;;;;5034019;28;20225;-60
2021/05/20 03:24:11;;;;;;;21.20;17.98;;;;;;;;;;5033682;28;20689;-60
2021/05/20 03:26:38;;;;;;;18.80;16.27;;;;;;;;;;5033828;28;20202;-61
2021/05/20 03:29:06;;;;;;;19.70;17.15;;;;;;;;;;5033807;28;20226;-60
2021/05/20 03:31:33;;;;;;;21.40;17.50;;;;;;;;;;5033758;28;20236;-61
2021/05/20 03:34:00;;;;;;;20.65;17.13;;;;;;;;;;5033481;28;20207;-60
2021/05/20 03:36:27;;;;;;;20.08;17.77;;;;;;;;;;5033837;28;20202;-61
2021/05/20 03:38:54;;;;;;;19.70;17.05;;;;;;;;;;5033260;28;20237;-60
2021/05/20 03:41:21;;;;;;;21.33;18.17;;;;;;;;;;5033658;28;20209;-61
2021/05/20 03:43:47;;;;;;;20.67;16.83;;;;;;;;;;5033565;28;20214;-60
2021/05/20 03:46:14;;;;;;;19.38;16.67;;;;;;;;;;5033753;28;20199;-61
2021/05/20 03:48:41;;;;;;;19.55;16.98;;;;;;;;;;5033317;28;20760;-61
2021/05/20 03:51:07;;;;;;;28.15;15.60;;;;;;;;;;5033202;28;20733;-61
2021/05/20 03:53:37;;;;;;;19.13;16.02;;;;;;;;;;5033524;28;20276;-60
2021/05/20 03:56:04;;;;;;;20.02;16.60;;;;;;;;;;5033635;28;20198;-61
2021/05/20 03:58:31;;;;;;;18.33;15.82;;;;;;;;;;5032902;28;20326;-61
2021/05/20 04:00:58;;;;;;;20.77;17.48;;;;;;;;;;5033191;28;20203;-61
2021/05/20 04:03:26;;;;;;;18.65;15.55;;;;;;;;;;5033454;28;20202;-61
2021/05/20 04:08:07;;;;;;;16.30;14.60;;;;;;;;;;5112954;27;20556;-61
2021/05/20 04:10:33;;;;;;;14.50;13.05;;;;;;;;;;5111825;28;20690;-61
2021/05/20 04:13:00;;;;;;;13.15;11.55;;;;;;;;;;5112169;28;20200;-61
2021/05/20 04:15:27;;;;;;;17.20;11.85;;;;;;;;;;5113120;28;20199;-62
2021/05/20 04:17:53;;;;;;;12.27;10.97;;;;;;;;;;5117366;28;20219;-62
2021/05/20 04:20:20;;;;;;;13.47;12.07;;;;;;;;;;5110950;28;20934;-62
2021/05/20 04:22:47;;;;;;;15.17;12.67;;;;;;;;;;5111104;28;20835;-60
2021/05/20 04:25:15;;;;;;;11.30;10.20;;;;;;;;;;5111690;28;20451;-61
2021/05/20 04:27:41;;;;;;;13.07;11.70;;;;;;;;;;5112891;28;20477;-60
2021/05/20 04:30:09;;;;;;;12.60;11.30;;;;;;;;;;5114155;28;20436;-61
2021/05/20 04:32:36;;;;;;;13.03;11.10;;;;;;;;;;5115190;28;20496;-60
2021/05/20 04:35:02;;;;;;;11.80;10.60;;;;;;;;;;5114615;28;20453;-61
2021/05/20 04:37:29;;;;;;;11.90;10.77;;;;;;;;;;5112817;28;20487;-61
2021/05/20 04:39:56;;;;;;;12.90;11.03;;;;;;;;;;5110645;28;20449;-61
2021/05/20 04:42:24;;;;;;;11.20;10.10;;;;;;;;;;5110618;28;20437;-62
2021/05/20 04:44:50;;;;;;;10.57;9.47;;;;;;;;;;5112119;28;20444;-60
2021/05/20 04:47:17;;;;;;;11.10;10.07;;;;;;;;;;5111487;28;20480;-61
2021/05/20 04:49:44;;;;;;;11.53;10.27;;;;;;;;;;5110699;28;20473;-63
2021/05/20 04:52:11;;;;;;;10.93;9.87;;;;;;;;;;5110183;28;20499;-60
2021/05/20 04:54:38;;;;;;;11.07;10.07;;;;;;;;;;5112575;28;20487;-62
2021/05/20 04:57:05;;;;;;;9.87;8.97;;;;;;;;;;5110851;28;20929;-61
2021/05/20 04:59:32;;;;;;;10.93;9.93;;;;;;;;;;5111126;28;20863;-61
2021/05/20 05:01:59;;;;;;;11.80;10.60;;;;;;;;;;5111006;28;20446;-62
2021/05/20 05:04:26;;;;;;;11.40;10.30;;;;;;;;;;5110714;28;20518;-60
2021/05/20 05:06:53;;;;;;;9.70;8.90;;;;;;;;;;5110116;28;20485;-61
2021/05/20 05:09:19;;;;;;;10.20;9.20;;;;;;;;;;5110306;28;20465;-61
2021/05/20 05:11:46;;;;;;;11.83;10.63;;;;;;;;;;5110487;28;20475;-62
2021/05/20 05:14:13;;;;;;;11.20;10.10;;;;;;;;;;5110028;28;20442;-63
2021/05/20 05:16:40;;;;;;;11.60;9.90;;;;;;;;;;5109798;28;20439;-62
2021/05/20 05:19:07;;;;;;;11.80;10.70;;;;;;;;;;5098072;28;20832;-61
2021/05/20 05:21:34;;;;;;;12.30;11.23;;;;;;;;;;5096200;28;20462;-61
2021/05/20 05:24:01;;;;;;;11.90;10.60;;;;;;;;;;5096380;28;20446;-60
2021/05/20 05:26:28;;;;;;;11.10;9.70;;;;;;;;;;5096098;28;20470;-61
2021/05/20 05:28:54;;;;;;;11.67;10.67;;;;;;;;;;5096569;28;20470;-61
2021/05/20 05:31:23;;;;;;;13.13;10.50;;;;;;;;;;5096365;28;20489;-61
2021/05/20 05:33:51;;;;;;;12.53;10.57;;;;;;;;;;5096110;28;20453;-61
2021/05/20 05:36:18;;;;;;;11.70;10.60;;;;;;;;;;5095966;28;20446;-61
2021/05/20 05:38:44;;;;;;;14.43;11.53;;;;;;;;;;5095366;28;20470;-61
2021/05/20 05:41:11;;;;;;;13.13;11.93;;;;;;;;;;5095952;28;20451;-60
2021/05/20 05:43:38;;;;;;;14.50;11.80;;;;;;;;;;5095960;28;20563;-61
2021/05/20 05:46:05;;;;;;;14.23;12.83;;;;;;;;;;5095649;28;20447;-62
2021/05/20 05:48:32;;;;;;;15.20;12.93;;;;;;;;;;5095490;28;20466;-61
2021/05/20 05:50:59;;;;;;;15.10;11.77;;;;;;;;;;5095988;28;20447;-61
2021/05/20 05:53:26;;;;;;;13.20;11.90;;;;;;;;;;5096909;28;20496;-62
2021/05/20 05:55:53;;;;;;;13.13;11.83;;;;;;;;;;5095416;28;20446;-62
2021/05/20 05:58:20;;;;;;;13.50;12.20;;;;;;;;;;5095391;28;20535;-61
2021/05/20 06:00:47;;;;;;;13.60;12.40;;;;;;;;;;5095760;28;20976;-62
2021/05/20 06:03:15;;;;;;;13.30;12.03;;;;;;;;;;5095772;28;20813;-61
2021/05/20 06:05:41;;;;;;;13.70;12.57;;;;;;;;;;5095186;28;20446;-62
2021/05/20 06:08:09;;;;;;;14.57;13.23;;;;;;;;;;5095611;28;20482;-62
2021/05/20 06:10:36;;;;;;;15.30;13.97;;;;;;;;;;5095607;28;20503;-64
2021/05/20 06:13:04;;;;;;;16.50;14.90;;;;;;;;;;5095314;28;20458;-62
2021/05/20 06:15:31;;;;;;;16.20;14.60;;;;;;;;;;5095777;28;20441;-62
2021/05/20 06:17:57;;;;;;;16.70;14.90;;;;;;;;;;5096076;28;20461;-62
2021/05/20 06:20:24;;;;;;;17.00;15.30;;;;;;;;;;5096250;28;20456;-63
2021/05/20 06:22:51;;;;;;;15.30;13.90;;;;;;;;;;5096549;28;20448;-63
2021/05/20 06:25:18;;;;;;;16.40;14.90;;;;;;;;;;5096811;28;20449;-63
2021/05/20 06:27:45;;;;;;;18.27;16.53;;;;;;;;;;5096397;28;20519;-63
2021/05/20 06:30:12;;;;;;;18.90;16.90;;;;;;;;;;5096204;28;20452;-61
2021/05/20 06:32:39;;;;;;;18.90;16.23;;;;;;;;;;5095914;28;20442;-62
2021/05/20 06:35:06;;;;;;;17.27;15.57;;;;;;;;;;5096011;28;20448;-63
2021/05/20 06:37:33;;;;;;;16.37;14.87;;;;;;;;;;5095958;28;20444;-62
2021/05/20 06:40:00;;;;;;;16.43;14.83;;;;;;;;;;5094561;28;20446;-63
2021/05/20 06:42:27;;;;;;;17.63;15.93;;;;;;;;;;5094821;28;20458;-62
2021/05/20 06:44:54;;;;;;;19.43;14.30;;;;;;;;;;5094798;28;20448;-65
2021/05/20 06:47:21;;;;;;;16.53;14.93;;;;;;;;;;5094794;28;20476;-65
2021/05/20 06:49:48;;;;;;;17.07;15.40;;;;;;;;;;5097039;28;20440;-63
2021/05/20 06:52:14;;;;;;;17.10;15.50;;;;;;;;;;5099768;28;20476;-63
2021/05/20 06:54:41;;;;;;;17.80;16.00;;;;;;;;;;5095474;28;20437;-62
2021/05/20 06:57:18;;;;;;;16.70;15.00;;;;;;;;;;5094930;28;20449;-62
2021/05/20 06:59:58;;;;;;;16.43;14.83;;;;;;;;;;5094591;28;20509;-63
2021/05/20 07:02:25;;;;;;;17.10;15.30;;;;;;;;;;5094489;28;20434;-63
2021/05/20 07:04:52;;;;;;;18.40;16.53;;;;;;;;;;5094571;28;20445;-62
2021/05/20 07:07:19;;;;;;;15.47;13.97;;;;;;;;;;5095905;28;20489;-62
2021/05/20 07:09:46;;;;;;;17.53;15.93;;;;;;;;;;5095687;28;20456;-63
2021/05/20 07:12:13;;;;;;;15.43;13.90;;;;;;;;;;5096812;28;20445;-62
2021/05/20 07:14:40;;;;;;;16.70;15.00;;;;;;;;;;5094552;28;20945;-63
2021/05/20 07:17:08;;;;;;;16.33;14.83;;;;;;;;;;5094203;28;20456;-64
2021/05/20 07:19:35;;;;;;;15.20;13.70;;;;;;;;;;5094423;28;20499;-62
2021/05/20 07:22:03;;;;;;;15.00;13.37;;;;;;;;;;5094434;28;20475;-62
2021/05/20 07:24:30;;;;;;;16.00;14.47;;;;;;;;;;5094599;28;20461;-62
2021/05/20 07:26:57;;;;;;;11.70;10.60;;;;;;;;;;5094211;28;20476;-62
2021/05/20 07:29:24;;;;;;;13.13;11.83;;;;;;;;;;5094360;28;20815;-62
2021/05/20 07:31:51;;;;;;;11.43;10.30;;;;;;;;;;5094100;28;20490;-62
2021/05/20 07:34:18;;;;;;;13.87;12.60;;;;;;;;;;5093596;28;20441;-63
2021/05/20 07:36:45;;;;;;;12.57;11.50;;;;;;;;;;5093629;28;20792;-63
2021/05/20 07:39:12;;;;;;;13.17;11.90;;;;;;;;;;5093450;28;20496;-63
2021/05/20 07:41:41;;;;;;;13.37;12.07;;;;;;;;;;5092983;28;20457;-64
2021/05/20 07:44:08;;;;;;;12.57;11.27;;;;;;;;;;5093132;28;20449;-63
2021/05/20 07:46:34;;;;;;;13.53;11.63;;;;;;;;;;5093470;28;20484;-63
2021/05/20 07:49:01;;;;;;;13.70;12.30;;;;;;;;;;5094062;28;20815;-63
2021/05/20 07:51:29;;;;;;;14.50;12.13;;;;;;;;;;5093634;28;20510;-63
2021/05/20 07:53:55;;;;;;;12.23;10.40;;;;;;;;;;5093679;28;20514;-62
2021/05/20 07:56:22;;;;;;;12.73;11.43;;;;;;;;;;5093487;28;20434;-63
2021/05/20 07:58:52;;;;;;;11.70;10.67;;;;;;;;;;5093498;28;20469;-63
2021/05/20 08:01:19;;;;;;;12.10;10.90;;;;;;;;;;5093548;28;20429;-63
2021/05/20 08:03:48;;;;;;;11.40;8.30;;;;;;;;;;5093495;28;20844;-63
2021/05/20 08:06:18;;;;;;;8.97;8.07;;;;;;;;;;5093198;28;20469;-64
2021/05/20 08:08:51;;;;;;;9.73;8.83;;;;;;;;;;5093690;28;20466;-64
2021/05/20 08:11:18;;;;;;;10.30;8.60;;;;;;;;;;5093601;28;20434;-63
2021/05/20 08:13:45;;;;;;;9.40;8.47;;;;;;;;;;5094340;28;20457;-62
2021/05/20 08:16:12;;;;;;;9.27;8.47;;;;;;;;;;5093175;28;20838;-62
2021/05/20 08:18:39;;;;;;;8.83;8.03;;;;;;;;;;5093493;28;20470;-63
2021/05/20 08:21:06;;;;;;;9.93;8.63;;;;;;;;;;5094002;28;20446;-63
2021/05/20 08:23:34;;;;;;;8.50;7.70;;;;;;;;;;5093573;28;20438;-63
2021/05/20 08:26:02;;;;;;;8.77;7.87;;;;;;;;;;5093288;28;20446;-64
2021/05/20 08:28:29;;;;;;;11.50;8.80;;;;;;;;;;5092625;28;20448;-63
2021/05/20 08:30:56;;;;;;;9.13;8.27;;;;;;;;;;5092975;28;20468;-63
2021/05/20 08:33:23;;;;;;;7.70;7.00;;;;;;;;;;5093074;28;20496;-63
2021/05/20 08:35:49;;;;;;;8.93;7.17;;;;;;;;;;5093032;28;20957;-61
2021/05/20 08:38:18;;;;;;;10.00;9.07;;;;;;;;;;5094351;28;20457;-62
2021/05/20 08:40:44;;;;;;;9.80;8.80;;;;;;;;;;5094286;28;20464;-62
2021/05/20 08:43:12;;;;;;;8.87;7.83;;;;;;;;;;5094488;28;20556;-62
2021/05/20 08:45:39;;;;;;;7.50;6.60;;;;;;;;;;5096379;28;20442;-63
2021/05/20 08:48:06;;;;;;;8.27;7.47;;;;;;;;;;5095000;28;20564;-64
2021/05/20 08:50:34;;;;;;;8.20;7.40;;;;;;;;;;5094668;28;20779;-64
2021/05/20 08:53:01;;;;;;;8.77;7.97;;;;;;;;;;5097256;28;20445;-62
2021/05/20 08:55:29;;;;;;;8.07;7.27;;;;;;;;;;5098943;28;20443;-63
2021/05/20 08:57:56;;;;;;;8.13;6.67;;;;;;;;;;5101654;28;20482;-61
2021/05/20 09:00:25;;;;;;;8.23;7.43;;;;;;;;;;5097637;28;20439;-63
2021/05/20 09:02:51;;;;;;;7.37;6.67;;;;;;;;;;5096491;28;20429;-62
2021/05/20 09:05:20;;;;;;;7.37;6.37;;;;;;;;;;5096799;28;20442;-61
2021/05/20 09:07:49;;;;;;;7.63;6.63;;;;;;;;;;5096479;28;20502;-63
2021/05/20 09:10:18;;;;;;;7.47;6.77;;;;;;;;;;5096257;28;20450;-63
2021/05/20 09:12:45;;;;;;;7.90;7.10;;;;;;;;;;5096604;28;20454;-60
2021/05/20 09:15:15;;;;;;;6.30;5.80;;;;;;;;;;5098650;28;20448;-62
2021/05/20 09:17:43;;;;;;;7.00;6.30;;;;;;;;;;5098381;28;20470;-62
2021/05/20 09:20:10;;;;;;;4.70;4.20;;;;;;;;;;5098318;28;20458;-61
2021/05/20 09:22:37;;;;;;;5.90;4.73;;;;;;;;;;5096223;28;20935;-61
2021/05/20 09:25:05;;;;;;;7.00;6.40;;;;;;;;;;5096663;28;20473;-60
2021/05/20 09:27:34;;;;;;;7.90;7.10;;;;;;;;;;5095933;28;20564;-62
2021/05/20 09:30:18;;;;;;;7.63;6.90;;;;;;;;;;5096066;28;20447;-61
2021/05/20 09:32:48;;;;;;;7.83;7.03;;;;;;;;;;5095812;28;20432;-63
2021/05/20 09:35:15;;;;;;;7.27;6.50;;;;;;;;;;5096703;28;20477;-62
2021/05/20 09:37:46;;;;;;;7.80;6.03;;;;;;;;;;5096289;28;20472;-61
2021/05/20 09:40:14;;;;;;;7.20;6.50;;;;;;;;;;5096485;28;20897;-61
2021/05/20 09:42:41;;;;;;;6.47;5.87;;;;;;;;;;5096992;28;20449;-61
2021/05/20 09:45:09;;;;;;;6.70;6.20;;;;;;;;;;5096292;28;20983;-61
2021/05/20 09:47:36;;;;;;;8.63;7.10;;;;;;;;;;5096390;28;20484;-61
2021/05/20 09:50:05;;;;;;;8.00;7.20;;;;;;;;;;5096581;28;20965;-61
2021/05/20 09:52:32;;;;;;;7.30;6.53;;;;;;;;;;5096714;28;20450;-62
2021/05/20 09:55:00;;;;;;;7.00;6.40;;;;;;;;;;5096345;28;20564;-61
2021/05/20 09:57:28;;;;;;;6.90;6.13;;;;;;;;;;5096236;28;20445;-64
2021/05/20 10:00:02;;;;;;;7.90;6.43;;;;;;;;;;5096653;28;20472;-64
2021/05/20 10:02:30;;;;;;;7.57;6.87;;;;;;;;;;5096285;28;20445;-62
2021/05/20 10:04:57;;;;;;;6.93;6.23;;;;;;;;;;5096474;28;20453;-63
2021/05/20 10:07:29;;;;;;;6.47;5.87;;;;;;;;;;5094072;28;20491;-62
2021/05/20 10:09:57;;;;;;;6.50;5.43;;;;;;;;;;5095316;28;20937;-62
2021/05/20 10:12:24;;;;;;;6.20;5.10;;;;;;;;;;5095470;28;20444;-62
2021/05/20 10:14:51;;;;;;;7.70;5.87;;;;;;;;;;5095612;28;20525;-60
2021/05/20 10:17:18;;;;;;;5.90;5.40;;;;;;;;;;5095219;28;20444;-63
2021/05/20 10:19:46;;;;;;;6.40;5.80;;;;;;;;;;5095619;28;20470;-63
2021/05/20 10:22:14;;;;;;;5.73;5.20;;;;;;;;;;5094786;28;20442;-62
2021/05/20 10:24:42;;;;;;;5.73;5.20;;;;;;;;;;5094553;28;20477;-62
2021/05/20 10:27:12;;;;;;;8.20;5.20;;;;;;;;;;5094891;28;20576;-62
2021/05/20 10:29:39;;;;;;;5.00;4.53;;;;;;;;;;5094541;28;20470;-63
2021/05/20 10:32:06;;;;;;;4.30;3.90;;;;;;;;;;5094982;28;20451;-63
2021/05/20 10:34:33;;;;;;;5.20;4.20;;;;;;;;;;5096721;28;20445;-62
2021/05/20 10:37:03;;;;;;;5.33;4.57;;;;;;;;;;5098477;28;20896;-63
2021/05/20 10:39:29;;;;;;;5.77;5.27;;;;;;;;;;5097544;28;20523;-62
2021/05/20 10:41:57;;;;;;;4.97;4.20;;;;;;;;;;5097124;28;20506;-63
2021/05/20 10:44:25;;;;;;;4.73;3.83;;;;;;;;;;5094567;28;20438;-63
2021/05/20 10:47:03;;;;;;;3.53;3.23;;;;;;;;;;5095054;28;20556;-65
2021/05/20 10:49:59;;;;;;;2.40;2.20;;;;;;;;;;5095932;28;20475;-63
2021/05/20 10:52:42;;;;;;;2.20;1.50;;;;;;;;;;5094239;28;20439;-62
2021/05/20 10:55:10;;;;;;;2.40;1.67;;;;;;;;;;5094095;28;20532;-64
2021/05/20 10:57:56;;;;;;;2.73;1.50;;;;;;;;;;5093788;28;20940;-62
2021/05/20 11:00:39;;;;;;;1.77;1.37;;;;;;;;;;5094981;28;20918;-64
2021/05/20 11:03:06;;;;;;;2.47;2.13;;;;;;;;;;5094833;28;20643;-63
2021/05/20 11:05:55;;;;;;;1.93;1.73;;;;;;;;;;5095503;28;20442;-63
2021/05/20 11:08:40;;;;;;;2.00;1.80;;;;;;;;;;5093905;28;20508;-61
2021/05/20 11:11:07;;;;;;;2.30;2.10;;;;;;;;;;5095591;28;20446;-62
2021/05/20 11:13:38;;;;;;;4.10;2.77;;;;;;;;;;5094789;28;20452;-64
2021/05/20 11:16:14;;;;;;;2.80;2.20;;;;;;;;;;5095903;28;20825;-62
2021/05/20 11:18:41;;;;;;;2.70;2.20;;;;;;;;;;5095860;28;20472;-64
2021/05/20 11:21:08;;;;;;;2.90;2.20;;;;;;;;;;5096472;28;20525;-63
2021/05/20 11:23:36;;;;;;;2.90;2.10;;;;;;;;;;5097205;28;20447;-62
2021/05/20 11:26:07;;;;;;;2.00;1.50;;;;;;;;;;5095938;28;20452;-63
2021/05/20 11:28:45;;;;;;;2.13;1.57;;;;;;;;;;5094323;28;20488;-63
2021/05/20 11:31:12;;;;;;;1.57;1.40;;;;;;;;;;5103109;28;20452;-62
2021/05/20 11:33:49;;;;;;;1.97;1.40;;;;;;;;;;5099479;28;20441;-62
2021/05/20 11:36:15;;;;;;;1.87;1.37;;;;;;;;;;5104510;28;20433;-63
2021/05/20 11:38:52;;;;;;;2.17;1.40;;;;;;;;;;5108921;28;20465;-64
2021/05/20 11:41:19;;;;;;;2.57;1.80;;;;;;;;;;5106974;28;20477;-63
2021/05/20 11:43:46;;;;;;;4.50;1.73;;;;;;;;;;5105498;28;20446;-63
2021/05/20 11:46:20;;;;;;;4.73;4.00;;;;;;;;;;5103492;28;20469;-63
2021/05/20 11:48:56;;;;;;;4.10;2.93;;;;;;;;;;5097392;28;20490;-62
2021/05/20 11:51:42;;;;;;;3.47;3.17;;;;;;;;;;5093937;28;20807;-62
2021/05/20 11:54:11;;;;;;;3.60;3.30;;;;;;;;;;5096484;28;20441;-63
2021/05/20 11:56:39;;;;;;;4.67;3.80;;;;;;;;;;5103589;28;20453;-62
2021/05/20 11:59:07;;;;;;;7.40;4.40;;;;;;;;;;5108235;28;20475;-63
2021/05/20 12:01:34;;;;;;;4.87;4.33;;;;;;;;;;5105201;28;20531;-62
2021/05/20 12:04:01;;;;;;;5.10;3.93;;;;;;;;;;5103686;28;20448;-62
2021/05/20 12:06:28;;;;;;;3.90;3.60;;;;;;;;;;5104895;28;20457;-62
2021/05/20 12:09:08;;;;;;;5.50;3.70;;;;;;;;;;5101577;28;20534;-61
2021/05/20 12:11:35;;;;;;;3.70;3.40;;;;;;;;;;5101452;28;20447;-61
2021/05/20 12:14:02;;;;;;;4.50;3.73;;;;;;;;;;5102036;28;20487;-61
2021/05/20 12:16:32;;;;;;;3.90;3.53;;;;;;;;;;5101776;28;20443;-62
2021/05/20 12:18:59;;;;;;;3.93;3.50;;;;;;;;;;5097537;28;20989;-59
2021/05/20 12:21:26;;;;;;;3.70;3.40;;;;;;;;;;5097941;28;20932;-61
2021/05/20 12:23:59;;;;;;;3.37;2.80;;;;;;;;;;5098774;28;20445;-63
2021/05/20 12:26:27;;;;;;;3.93;3.60;;;;;;;;;;5098912;28;20481;-63
2021/05/20 12:28:54;;;;;;;2.83;2.50;;;;;;;;;;5100202;28;20457;-63
2021/05/20 12:31:21;;;;;;;3.10;2.80;;;;;;;;;;5103375;28;20442;-64
2021/05/20 12:33:48;;;;;;;5.07;3.07;;;;;;;;;;5102460;28;20468;-62
2021/05/20 12:36:28;;;;;;;6.30;3.60;;;;;;;;;;5103724;28;20447;-63
2021/05/20 12:38:55;;;;;;;5.40;3.07;;;;;;;;;;5098621;28;20583;-61
2021/05/20 12:41:22;;;;;;;5.07;4.00;;;;;;;;;;5098541;28;20480;-62
2021/05/20 12:43:49;;;;;;;3.90;3.50;;;;;;;;;;5098297;28;20470;-62
2021/05/20 12:46:17;;;;;;;3.93;3.63;;;;;;;;;;5097774;28;20500;-63
2021/05/20 12:48:46;;;;;;;5.60;4.30;;;;;;;;;;5097588;28;20985;-62
2021/05/20 12:51:23;;;;;;;4.70;4.13;;;;;;;;;;5097972;28;20807;-62
2021/05/20 12:53:52;;;;;;;5.37;4.47;;;;;;;;;;5098463;28;20430;-61
2021/05/20 12:56:26;;;;;;;5.17;4.43;;;;;;;;;;5098022;28;20495;-63
2021/05/20 12:58:55;;;;;;;3.90;3.50;;;;;;;;;;5097759;28;20457;-63
2021/05/20 13:01:22;;;;;;;4.20;3.80;;;;;;;;;;5098240;28;20438;-63
2021/05/20 13:03:50;;;;;;;4.37;3.57;;;;;;;;;;5096784;28;20510;-62
2021/05/20 13:06:22;;;;;;;4.63;2.87;;;;;;;;;;5096667;28;20559;-61
2021/05/20 13:08:49;;;;;;;4.60;3.37;;;;;;;;;;5096997;28;20513;-62
2021/05/20 13:11:18;;;;;;;2.87;2.57;;;;;;;;;;5097598;28;20464;-62
2021/05/20 13:13:47;;;;;;;3.40;2.63;;;;;;;;;;5097161;28;20453;-62
2021/05/20 13:16:21;;;;;;;5.37;2.17;;;;;;;;;;5096780;28;20448;-61
2021/05/20 13:19:27;;;;;;;3.13;2.10;;;;;;;;;;5097256;28;20871;-62
2021/05/20 13:24:45;;;;;;;4.67;2.17;;;;;;;;;;5096646;28;20411;-61
2021/05/20 13:27:13;;;;;;;5.60;2.43;;;;;;;;;;5096711;28;20832;-62
2021/05/20 13:29:42;;;;;;;3.13;2.00;;;;;;;;;;5097832;28;20466;-61
2021/05/20 13:32:15;;;;;;;3.13;2.53;;;;;;;;;;5098808;28;20449;-61
2021/05/20 13:34:42;;;;;;;2.00;1.80;;;;;;;;;;5097689;28;20426;-62
2021/05/20 13:37:10;;;;;;;4.00;2.20;;;;;;;;;;5097218;28;20487;-61
2021/05/20 13:39:37;;;;;;;1.97;1.70;;;;;;;;;;5096566;28;20473;-61
2021/05/20 13:42:03;;;;;;;2.57;1.27;;;;;;;;;;5097422;28;20475;-62
2021/05/20 13:44:30;;;;;;;1.83;1.63;;;;;;;;;;5095865;28;20456;-62
2021/05/20 13:46:57;;;;;;;2.60;1.50;;;;;;;;;;5095758;28;20970;-62
2021/05/20 13:49:24;;;;;;;3.40;1.70;;;;;;;;;;5095155;28;20523;-63
2021/05/20 13:51:54;;;;;;;3.20;2.10;;;;;;;;;;5095368;28;20446;-63
2021/05/20 13:54:22;;;;;;;2.40;2.07;;;;;;;;;;5095525;28;20434;-61
2021/05/20 13:56:49;;;;;;;5.03;1.93;;;;;;;;;;5095454;28;20554;-63
2021/05/20 13:59:19;;;;;;;2.87;1.80;;;;;;;;;;5095292;28;20842;-63
2021/05/20 14:01:49;;;;;;;4.23;1.90;;;;;;;;;;5095308;28;20887;-62
2021/05/20 14:04:23;;;;;;;1.70;1.53;;;;;;;;;;5095338;28;20463;-61
2021/05/20 14:06:50;;;;;;;2.60;1.80;;;;;;;;;;5095017;28;20538;-63
2021/05/20 14:09:17;;;;;;;3.10;1.47;;;;;;;;;;5095085;28;20474;-61
2021/05/20 14:11:45;;;;;;;1.70;1.40;;;;;;;;;;5095122;28;20440;-63
2021/05/20 14:14:12;;;;;;;3.80;1.50;;;;;;;;;;5095449;28;20200;-61
2021/05/20 14:16:38;;;;;;;1.20;1.10;;;;;;;;;;5094942;28;20439;-64
2021/05/20 14:19:05;;;;;;;2.40;1.50;;;;;;;;;;5094993;28;20473;-63
2021/05/20 14:21:32;;;;;;;2.60;1.47;;;;;;;;;;5095150;28;20453;-61
2021/05/20 14:23:59;;;;;;;1.77;1.43;;;;;;;;;;5095085;28;20818;-62
2021/05/20 14:26:27;;;;;;;2.00;1.50;;;;;;;;;;5095260;28;20881;-62
2021/05/20 14:28:55;;;;;;;1.70;1.50;;;;;;;;;;5094784;28;20886;-64
2021/05/20 14:31:21;;;;;;;2.80;1.80;;;;;;;;;;5094809;28;20491;-62
2021/05/20 14:33:48;;;;;;;2.50;1.60;;;;;;;;;;5094067;28;20443;-62
2021/05/20 14:36:15;;;;;;;2.97;1.87;;;;;;;;;;5095443;28;20438;-62
2021/05/20 14:38:42;;;;;;;2.57;1.90;;;;;;;;;;5094695;28;20458;-62